createdAt,value
2022-07-26T00:00:18.744Z,2.25
2022-07-26T00:02:48.278Z,1.88
2022-07-26T00:05:16.763Z,1.83
2022-07-26T00:07:44.237Z,2.00
2022-07-26T00:10:11.641Z,1.73
2022-07-26T00:12:38.871Z,1.88
2022-07-26T00:15:06.886Z,1.90
2022-07-26T00:17:34.084Z,1.85
2022-07-26T00:20:01.300Z,1.92
2022-07-26T00:22:34.791Z,2.08
2022-07-26T00:25:03.464Z,2.00
2022-07-26T00:27:30.701Z,1.75
2022-07-26T00:29:57.993Z,1.90
2022-07-26T00:32:25.211Z,2.00
2022-07-26T00:34:52.750Z,2.25
2022-07-26T00:37:21.302Z,2.00
2022-07-26T00:39:49.164Z,2.05
2022-07-26T00:42:16.381Z,1.60
2022-07-26T00:44:45.522Z,1.60
2022-07-26T00:47:13.001Z,1.90
2022-07-26T00:49:40.445Z,2.10
2022-07-26T00:52:07.854Z,1.70
2022-07-26T00:54:35.267Z,2.00
2022-07-26T00:57:02.586Z,2.20
2022-07-26T00:59:29.803Z,2.60
2022-07-26T01:01:57.290Z,2.20
2022-07-26T01:04:24.673Z,1.90
2022-07-26T01:06:52.066Z,1.85
2022-07-26T01:09:19.243Z,1.80
2022-07-26T01:11:46.469Z,2.20
2022-07-26T01:14:13.635Z,1.90
2022-07-26T01:16:40.985Z,1.88
2022-07-26T01:19:08.334Z,2.65
2022-07-26T01:21:35.679Z,2.20
2022-07-26T01:24:03.040Z,2.25
2022-07-26T01:26:30.252Z,2.22
2022-07-26T01:28:57.472Z,2.47
2022-07-26T01:31:24.759Z,2.22
2022-07-26T01:33:52.032Z,2.17
2022-07-26T01:36:19.810Z,2.35
2022-07-26T01:38:47.099Z,2.05
2022-07-26T01:41:14.291Z,2.10
2022-07-26T01:43:41.568Z,2.03
2022-07-26T01:46:09.719Z,2.50
2022-07-26T01:48:37.302Z,2.35
2022-07-26T01:51:04.695Z,2.30
2022-07-26T01:53:31.959Z,2.28
2022-07-26T01:55:59.279Z,2.25
2022-07-26T01:58:26.555Z,1.92
2022-07-26T02:00:53.766Z,2.50
2022-07-26T02:03:21.019Z,2.45
2022-07-26T02:05:48.280Z,2.40
2022-07-26T02:08:15.521Z,2.40
2022-07-26T02:11:03.266Z,2.53
2022-07-26T02:13:34.311Z,2.40
2022-07-26T02:16:01.968Z,2.17
2022-07-26T02:18:29.995Z,2.47
2022-07-26T02:20:57.419Z,1.92
2022-07-26T02:23:25.205Z,2.53
2022-07-26T02:25:52.632Z,2.47
2022-07-26T02:28:19.888Z,2.25
2022-07-26T02:30:47.633Z,2.22
2022-07-26T02:33:15.311Z,2.47
2022-07-26T02:35:42.934Z,2.28
2022-07-26T02:38:11.070Z,2.58
2022-07-26T02:40:39.048Z,2.40
2022-07-26T02:43:07.473Z,2.28
2022-07-26T02:45:35.101Z,2.15
2022-07-26T02:48:02.404Z,2.47
2022-07-26T02:50:30.009Z,2.58
2022-07-26T02:52:57.311Z,2.72
2022-07-26T02:55:25.132Z,2.40
2022-07-26T02:57:52.515Z,2.83
2022-07-26T03:00:21.260Z,3.03
2022-07-26T03:02:49.373Z,2.53
2022-07-26T03:05:16.646Z,2.95
2022-07-26T03:07:43.947Z,2.35
2022-07-26T03:10:11.414Z,2.63
2022-07-26T03:12:38.625Z,3.03
2022-07-26T03:15:06.713Z,3.00
2022-07-26T03:17:33.908Z,2.80
2022-07-26T03:20:02.399Z,2.58
2022-07-26T03:22:29.642Z,2.55
2022-07-26T03:24:56.860Z,2.88
2022-07-26T03:27:24.049Z,2.97
2022-07-26T03:29:51.280Z,2.70
2022-07-26T03:32:18.441Z,2.75
2022-07-26T03:34:45.679Z,2.40
2022-07-26T03:37:12.840Z,2.60
2022-07-26T03:39:40.612Z,2.70
2022-07-26T03:42:07.863Z,2.45
2022-07-26T03:44:35.083Z,2.53
2022-07-26T03:47:02.452Z,2.25
2022-07-26T03:49:29.997Z,2.80
2022-07-26T03:51:57.287Z,2.53
2022-07-26T03:54:24.588Z,2.40
2022-07-26T03:56:51.828Z,2.90
2022-07-26T03:59:19.068Z,2.50
2022-07-26T04:01:47.530Z,2.90
2022-07-26T04:04:17.733Z,2.35
2022-07-26T04:06:46.240Z,2.65
2022-07-26T04:09:13.915Z,2.53
2022-07-26T04:11:41.278Z,2.30
2022-07-26T04:14:08.747Z,3.20
2022-07-26T04:16:40.102Z,3.08
2022-07-26T04:19:10.309Z,2.53
2022-07-26T04:21:37.526Z,2.90
2022-07-26T04:24:05.125Z,2.60
2022-07-26T04:26:32.561Z,2.95
2022-07-26T04:28:59.916Z,2.75
2022-07-26T04:31:27.182Z,2.80
2022-07-26T04:33:55.106Z,2.67
2022-07-26T04:36:22.286Z,3.50
2022-07-26T04:38:49.505Z,3.28
2022-07-26T04:41:16.755Z,2.58
2022-07-26T04:43:43.973Z,3.33
2022-07-26T04:46:11.205Z,2.45
2022-07-26T04:48:38.831Z,2.90
2022-07-26T04:51:06.197Z,3.03
2022-07-26T04:53:33.453Z,2.47
2022-07-26T04:56:00.639Z,2.78
2022-07-26T04:58:27.834Z,2.00
2022-07-26T05:01:11.319Z,2.22
2022-07-26T05:03:38.988Z,2.22
2022-07-26T05:06:06.309Z,2.17
2022-07-26T05:08:33.515Z,2.35
2022-07-26T05:11:00.940Z,1.95
2022-07-26T05:13:30.502Z,2.00
2022-07-26T05:15:58.304Z,2.20
2022-07-26T05:18:26.323Z,1.65
2022-07-26T05:20:53.983Z,2.40
2022-07-26T05:23:21.180Z,2.33
2022-07-26T05:25:48.860Z,1.95
2022-07-26T05:28:16.027Z,2.20
2022-07-26T05:30:43.249Z,2.25
2022-07-26T05:33:10.486Z,2.10
2022-07-26T05:35:43.586Z,1.70
2022-07-26T05:38:10.825Z,2.17
2022-07-26T05:40:38.229Z,1.63
2022-07-26T05:43:05.547Z,1.35
2022-07-26T05:45:32.911Z,1.90
2022-07-26T05:48:00.131Z,1.70
2022-07-26T05:50:27.333Z,1.85
2022-07-26T05:52:54.548Z,1.52
2022-07-26T05:55:21.756Z,1.40
2022-07-26T05:57:49.772Z,1.55
2022-07-26T06:00:17.515Z,1.20
2022-07-26T06:02:44.926Z,1.30
2022-07-26T06:05:12.183Z,1.02
2022-07-26T06:07:39.395Z,1.30
2022-07-26T06:10:06.882Z,1.75
2022-07-26T06:12:34.066Z,1.50
2022-07-26T06:15:01.285Z,1.38
2022-07-26T06:17:31.381Z,1.20
2022-07-26T06:20:00.213Z,1.17
2022-07-26T06:22:27.438Z,1.00
2022-07-26T06:24:54.706Z,1.02
2022-07-26T06:27:21.895Z,1.10
2022-07-26T06:29:49.157Z,1.52
2022-07-26T06:32:16.470Z,1.25
2022-07-26T06:34:43.731Z,1.10
2022-07-26T06:37:10.900Z,1.20
2022-07-26T06:39:38.100Z,1.30
2022-07-26T06:42:05.313Z,1.23
2022-07-26T06:44:32.523Z,1.13
2022-07-26T06:46:59.758Z,1.80
2022-07-26T06:49:27.074Z,0.98
2022-07-26T06:51:57.574Z,1.00
2022-07-26T06:54:25.033Z,0.85
2022-07-26T06:56:52.265Z,0.98
2022-07-26T06:59:19.478Z,1.25
2022-07-26T07:01:58.531Z,1.50
2022-07-26T07:04:27.549Z,1.08
2022-07-26T07:06:54.792Z,1.40
2022-07-26T07:09:24.388Z,1.05
2022-07-26T07:11:58.625Z,1.35
2022-07-26T07:14:27.593Z,1.30
2022-07-26T07:16:55.285Z,1.40
2022-07-26T07:19:22.586Z,1.48
2022-07-26T07:21:49.771Z,1.00
2022-07-26T07:24:17.089Z,0.93
2022-07-26T07:26:44.498Z,1.02
2022-07-26T07:29:14.575Z,0.88
2022-07-26T07:31:48.734Z,0.73
2022-07-26T07:34:17.993Z,0.90
2022-07-26T07:36:47.117Z,1.08
2022-07-26T07:39:17.088Z,1.00
2022-07-26T07:41:45.877Z,0.98
2022-07-26T07:44:13.373Z,1.10
2022-07-26T07:46:41.000Z,0.80
2022-07-26T07:49:08.734Z,1.25
2022-07-26T07:51:36.497Z,1.33
2022-07-26T07:54:05.810Z,1.00
2022-07-26T07:56:33.602Z,1.30
2022-07-26T07:59:00.919Z,0.80
2022-07-26T08:01:40.321Z,0.70
2022-07-26T08:04:08.947Z,1.05
2022-07-26T08:06:36.419Z,0.80
2022-07-26T08:09:06.368Z,0.80
2022-07-26T08:11:34.408Z,1.20
2022-07-26T08:14:01.787Z,0.70
2022-07-26T08:16:29.110Z,1.00
2022-07-26T08:18:57.759Z,0.85
2022-07-26T08:21:27.489Z,0.98
2022-07-26T08:23:56.112Z,1.15
2022-07-26T08:26:23.301Z,0.75
2022-07-26T08:28:58.440Z,0.60
2022-07-26T08:31:27.753Z,0.80
2022-07-26T08:33:55.045Z,1.00
2022-07-26T08:36:22.249Z,0.75
2022-07-26T08:38:49.606Z,1.08
2022-07-26T08:41:19.549Z,0.90
2022-07-26T08:43:51.637Z,0.93
2022-07-26T08:46:24.946Z,1.10
2022-07-26T08:48:52.986Z,0.90
2022-07-26T08:51:21.057Z,1.00
2022-07-26T08:53:48.704Z,1.30
2022-07-26T08:56:15.904Z,1.08
2022-07-26T08:58:43.818Z,1.20
2022-07-26T09:01:15.140Z,1.02
2022-07-26T09:03:43.640Z,0.93
2022-07-26T09:06:15.267Z,0.98
2022-07-26T09:08:42.612Z,1.10
2022-07-26T09:11:25.159Z,1.02
2022-07-26T09:13:53.488Z,1.10
2022-07-26T09:16:20.957Z,1.10
2022-07-26T09:18:48.273Z,1.08
2022-07-26T09:21:40.793Z,0.95
2022-07-26T09:24:08.024Z,0.90
2022-07-26T09:26:35.289Z,1.02
2022-07-26T09:29:03.591Z,0.98
2022-07-26T09:31:30.875Z,1.13
2022-07-26T09:33:59.860Z,0.93
2022-07-26T09:36:27.798Z,1.05
2022-07-26T09:38:58.245Z,0.75
2022-07-26T09:41:34.572Z,1.05
2022-07-26T09:44:19.914Z,1.08
2022-07-26T09:46:54.197Z,0.95
2022-07-26T09:49:22.454Z,0.90
2022-07-26T09:51:51.131Z,0.88
2022-07-26T09:54:39.224Z,0.65
2022-07-26T09:57:06.403Z,1.02
2022-07-26T09:59:33.572Z,1.10
2022-07-26T10:02:01.576Z,1.00
2022-07-26T10:04:28.936Z,0.80
2022-07-26T10:06:58.218Z,1.05
2022-07-26T10:09:25.772Z,0.70
2022-07-26T10:11:53.517Z,0.98
2022-07-26T10:14:40.036Z,1.40
2022-07-26T10:17:28.965Z,0.82
2022-07-26T10:19:59.211Z,0.90
2022-07-26T10:22:27.881Z,0.70
2022-07-26T10:24:58.241Z,0.90
2022-07-26T10:27:38.762Z,0.88
2022-07-26T10:30:34.994Z,1.00
2022-07-26T10:33:10.412Z,0.90
2022-07-26T10:35:40.409Z,0.82
2022-07-26T10:38:09.188Z,0.80
2022-07-26T10:40:37.007Z,0.98
2022-07-26T10:43:39.030Z,0.80
2022-07-26T10:46:17.121Z,0.77
2022-07-26T10:49:00.019Z,0.90
2022-07-26T10:51:28.438Z,1.20
2022-07-26T10:54:01.953Z,1.00
2022-07-26T10:56:33.396Z,0.90
2022-07-26T10:59:01.463Z,0.93
2022-07-26T11:01:34.987Z,0.70
2022-07-26T11:04:02.461Z,0.75
2022-07-26T11:06:30.330Z,0.60
2022-07-26T11:08:57.633Z,0.90
2022-07-26T11:11:28.829Z,0.80
2022-07-26T11:14:04.597Z,0.88
2022-07-26T11:16:37.279Z,0.80
2022-07-26T11:19:13.412Z,0.95
2022-07-26T11:21:41.365Z,0.93
2022-07-26T11:24:09.291Z,0.85
2022-07-26T11:26:46.538Z,0.90
2022-07-26T11:29:17.688Z,0.80
2022-07-26T11:31:51.284Z,0.98
2022-07-26T11:34:28.069Z,1.05
2022-07-26T11:36:56.645Z,0.70
2022-07-26T11:39:23.955Z,0.90
2022-07-26T11:41:52.348Z,1.10
2022-07-26T11:44:20.982Z,0.82
2022-07-26T11:46:48.701Z,1.10
2022-07-26T11:49:16.010Z,0.70
2022-07-26T11:51:56.793Z,0.80
2022-07-26T11:54:24.900Z,1.42
2022-07-26T11:56:52.190Z,1.00
2022-07-26T11:59:19.798Z,1.00
2022-07-26T12:01:49.847Z,0.93
2022-07-26T12:04:26.271Z,0.98
2022-07-26T12:06:54.269Z,0.95
2022-07-26T12:09:35.267Z,1.00
2022-07-26T12:12:04.814Z,1.05
2022-07-26T12:14:33.946Z,1.08
2022-07-26T12:17:19.547Z,0.90
2022-07-26T12:19:46.794Z,1.05
2022-07-26T12:22:14.229Z,1.13
2022-07-26T12:24:44.504Z,1.10
2022-07-26T12:27:11.853Z,0.80
2022-07-26T12:29:41.512Z,0.90
2022-07-26T12:32:12.870Z,0.90
2022-07-26T12:34:41.092Z,1.20
2022-07-26T12:37:11.358Z,1.10
2022-07-26T12:39:38.906Z,1.20
2022-07-26T12:42:21.928Z,1.48
2022-07-26T12:44:49.238Z,1.23
2022-07-26T12:47:17.161Z,1.13
2022-07-26T12:49:46.591Z,1.00
2022-07-26T12:52:14.933Z,0.90
2022-07-26T12:54:42.776Z,1.02
2022-07-26T12:57:10.179Z,1.13
2022-07-26T12:59:40.968Z,0.93
2022-07-26T13:02:12.086Z,0.90
2022-07-26T13:04:39.489Z,1.00
2022-07-26T13:07:07.233Z,0.80
2022-07-26T13:09:34.522Z,0.90
2022-07-26T13:12:02.671Z,0.77
2022-07-26T13:14:29.903Z,0.93
2022-07-26T13:16:57.207Z,1.02
2022-07-26T13:19:24.510Z,0.90
2022-07-26T13:21:53.160Z,1.08
2022-07-26T13:24:20.902Z,0.90
2022-07-26T13:26:49.971Z,0.88
2022-07-26T13:29:17.822Z,0.90
2022-07-26T13:31:45.079Z,1.40
2022-07-26T13:34:12.490Z,1.10
2022-07-26T13:36:39.936Z,1.08
2022-07-26T13:39:07.133Z,1.40
2022-07-26T13:41:37.042Z,1.20
2022-07-26T13:44:04.981Z,1.15
2022-07-26T13:46:33.578Z,1.00
2022-07-26T13:49:02.064Z,1.42
2022-07-26T13:51:48.911Z,1.20
2022-07-26T13:54:16.898Z,1.00
2022-07-26T13:56:44.552Z,1.13
2022-07-26T13:59:12.287Z,1.10
2022-07-26T14:01:43.191Z,1.15
2022-07-26T14:04:13.396Z,1.20
2022-07-26T14:06:40.970Z,1.02
2022-07-26T14:09:10.886Z,1.10
2022-07-26T14:11:38.821Z,1.00
2022-07-26T14:14:06.244Z,0.70
2022-07-26T14:16:33.948Z,1.00
2022-07-26T14:19:01.265Z,1.00
2022-07-26T14:21:29.113Z,1.00
2022-07-26T14:24:05.861Z,0.90
2022-07-26T14:26:33.111Z,1.23
2022-07-26T14:29:00.367Z,1.10
2022-07-26T14:31:27.721Z,1.35
2022-07-26T14:33:55.002Z,1.40
2022-07-26T14:36:22.246Z,1.20
2022-07-26T14:38:50.032Z,0.90
2022-07-26T14:41:17.409Z,1.30
2022-07-26T14:43:45.306Z,1.20
2022-07-26T14:46:13.261Z,1.23
2022-07-26T14:48:54.186Z,1.00
2022-07-26T14:51:22.250Z,1.30
2022-07-26T14:53:49.473Z,1.17
2022-07-26T14:56:16.653Z,1.88
2022-07-26T14:58:43.879Z,1.67
2022-07-26T15:01:11.519Z,1.40
2022-07-26T15:03:38.816Z,0.98
2022-07-26T15:06:06.070Z,1.08
2022-07-26T15:08:33.275Z,1.08
2022-07-26T15:11:00.645Z,1.25
2022-07-26T15:13:28.063Z,1.10
2022-07-26T15:15:56.241Z,1.23
2022-07-26T15:18:23.674Z,1.00
2022-07-26T15:20:51.564Z,1.30
2022-07-26T15:23:18.840Z,1.23
2022-07-26T15:25:48.579Z,0.95
2022-07-26T15:28:16.422Z,1.20
2022-07-26T15:30:43.918Z,1.15
2022-07-26T15:33:11.188Z,1.40
2022-07-26T15:35:40.536Z,1.10
2022-07-26T15:38:07.766Z,0.82
2022-07-26T15:40:35.175Z,0.80
2022-07-26T15:43:02.994Z,1.00
2022-07-26T15:45:30.292Z,1.10
2022-07-26T15:48:11.386Z,1.00
2022-07-26T15:50:45.373Z,0.98
2022-07-26T15:53:15.501Z,1.27
2022-07-26T15:55:42.786Z,0.80
2022-07-26T15:58:09.963Z,0.80
2022-07-26T16:00:37.226Z,1.10
2022-07-26T16:03:04.503Z,1.00
2022-07-26T16:05:33.054Z,0.95
2022-07-26T16:08:00.250Z,0.93
2022-07-26T16:10:27.511Z,1.20
2022-07-26T16:12:54.726Z,1.10
2022-07-26T16:15:21.915Z,1.20
2022-07-26T16:17:49.134Z,1.27
2022-07-26T16:20:19.372Z,1.13
2022-07-26T16:22:47.332Z,0.98
2022-07-26T16:25:15.974Z,1.00
2022-07-26T16:27:43.842Z,0.95
2022-07-26T16:30:12.403Z,1.00
2022-07-26T16:32:39.700Z,0.98
2022-07-26T16:35:07.277Z,1.83
2022-07-26T16:37:34.465Z,1.70
2022-07-26T16:40:01.648Z,1.17
2022-07-26T16:42:28.843Z,1.30
2022-07-26T16:44:56.081Z,1.77
2022-07-26T16:47:23.327Z,1.35
2022-07-26T16:49:50.582Z,1.92
2022-07-26T16:52:17.907Z,1.55
2022-07-26T16:54:45.140Z,1.20
2022-07-26T16:57:12.580Z,1.15
2022-07-26T16:59:39.775Z,1.75
2022-07-26T17:02:08.914Z,1.42
2022-07-26T17:04:36.492Z,1.58
2022-07-26T17:07:32.243Z,1.27
2022-07-26T17:09:50.981Z,1.30
2022-07-26T17:12:18.348Z,1.65
2022-07-26T17:14:45.522Z,1.17
2022-07-26T17:17:12.930Z,1.30
2022-07-26T17:19:40.226Z,1.52
2022-07-26T17:22:07.514Z,1.20
2022-07-26T17:24:34.715Z,0.93
2022-07-26T17:27:01.896Z,1.20
2022-07-26T17:29:29.137Z,1.40
2022-07-26T17:31:56.363Z,1.30
2022-07-26T17:34:23.623Z,1.95
2022-07-26T17:36:58.207Z,1.30
2022-07-26T17:39:34.123Z,1.20
2022-07-26T17:42:14.853Z,1.20
2022-07-26T17:44:42.223Z,1.27
2022-07-26T17:47:27.516Z,1.08
2022-07-26T17:49:57.149Z,1.10
2022-07-26T17:52:26.473Z,1.42
2022-07-26T17:54:55.633Z,1.20
2022-07-26T17:57:22.823Z,1.35
2022-07-26T17:59:50.009Z,1.42
2022-07-26T18:02:17.358Z,1.63
2022-07-26T18:04:44.597Z,1.20
2022-07-26T18:07:11.923Z,1.23
2022-07-26T18:09:39.141Z,1.10
2022-07-26T18:12:06.674Z,1.50
2022-07-26T18:14:33.954Z,1.45
2022-07-26T18:17:01.171Z,1.27
2022-07-26T18:19:29.816Z,1.35
2022-07-26T18:21:57.090Z,1.10
2022-07-26T18:24:24.328Z,1.20
2022-07-26T18:26:51.884Z,1.98
2022-07-26T18:29:19.249Z,1.65
2022-07-26T18:31:46.515Z,1.30
2022-07-26T18:34:13.856Z,1.23
2022-07-26T18:36:41.022Z,1.48
2022-07-26T18:39:08.614Z,1.40
2022-07-26T18:41:36.045Z,1.40
2022-07-26T18:44:03.408Z,1.73
2022-07-26T18:46:30.710Z,1.58
2022-07-26T18:48:58.430Z,1.50
2022-07-26T18:51:27.068Z,1.65
2022-07-26T18:53:54.570Z,1.48
2022-07-26T18:56:21.772Z,2.00
2022-07-26T18:58:49.112Z,1.33
2022-07-26T19:01:16.408Z,1.50
2022-07-26T19:03:43.730Z,1.30
2022-07-26T19:06:11.875Z,1.50
2022-07-26T19:08:39.145Z,1.50
2022-07-26T19:11:06.441Z,1.40
2022-07-26T19:13:33.838Z,1.67
2022-07-26T19:16:01.157Z,1.83
2022-07-26T19:18:28.417Z,1.60
2022-07-26T19:20:55.699Z,1.60
2022-07-26T19:23:22.895Z,1.67
2022-07-26T19:25:50.241Z,1.50
2022-07-26T19:28:17.463Z,1.67
2022-07-26T19:30:45.724Z,1.80
2022-07-26T19:33:12.988Z,1.83
2022-07-26T19:35:40.327Z,1.90
2022-07-26T19:38:07.589Z,1.80
2022-07-26T19:40:34.770Z,2.42
2022-07-26T19:43:02.026Z,2.53
2022-07-26T19:45:29.243Z,2.70
2022-07-26T19:47:56.580Z,2.85
2022-07-26T19:50:24.304Z,3.10
2022-07-26T19:52:51.515Z,2.80
2022-07-26T19:55:18.710Z,3.35
2022-07-26T19:57:45.928Z,2.90
2022-07-26T20:00:13.343Z,3.30
2022-07-26T20:02:41.287Z,3.58
2022-07-26T20:05:10.238Z,3.38
2022-07-26T20:07:37.902Z,3.55
2022-07-26T20:10:05.576Z,3.28
2022-07-26T20:12:34.426Z,3.80
2022-07-26T20:15:01.855Z,3.30
2022-07-26T20:17:35.373Z,3.55
2022-07-26T20:20:06.469Z,2.83
2022-07-26T20:22:33.732Z,3.20
2022-07-26T20:25:00.969Z,3.45
2022-07-26T20:27:28.309Z,3.25
2022-07-26T20:30:00.712Z,3.08
2022-07-26T20:32:28.392Z,3.10
2022-07-26T20:34:55.652Z,2.75
2022-07-26T20:37:23.077Z,2.92
2022-07-26T20:39:50.424Z,2.75
2022-07-26T20:42:21.782Z,3.05
2022-07-26T20:44:49.447Z,3.10
2022-07-26T20:47:16.810Z,3.70
2022-07-26T20:49:43.989Z,2.97
2022-07-26T20:52:11.202Z,3.55
2022-07-26T20:54:38.440Z,3.20
2022-07-26T20:57:05.766Z,3.10
2022-07-26T20:59:34.925Z,3.10
2022-07-26T21:02:02.181Z,3.50
2022-07-26T21:04:30.039Z,3.28
2022-07-26T21:06:57.190Z,3.42
2022-07-26T21:09:27.375Z,3.30
2022-07-26T21:11:54.980Z,3.72
2022-07-26T21:14:22.231Z,3.22
2022-07-26T21:16:49.476Z,3.40
2022-07-26T21:19:16.708Z,4.03
2022-07-26T21:21:43.946Z,3.15
2022-07-26T21:24:12.261Z,3.83
2022-07-26T21:26:39.512Z,2.88
2022-07-26T21:29:06.739Z,3.35
2022-07-26T21:31:33.938Z,3.60
2022-07-26T21:34:01.157Z,3.35
2022-07-26T21:36:28.547Z,3.25
2022-07-26T21:38:55.760Z,3.50
2022-07-26T21:41:22.995Z,3.30
2022-07-26T21:43:50.190Z,3.20
2022-07-26T21:46:17.533Z,3.30
2022-07-26T21:48:44.783Z,2.92
2022-07-26T21:51:12.348Z,2.65
2022-07-26T21:53:39.539Z,3.13
2022-07-26T21:56:06.881Z,3.17
2022-07-26T21:58:36.642Z,3.03
2022-07-26T22:01:06.471Z,3.65
2022-07-26T22:03:35.223Z,3.35
2022-07-26T22:06:02.473Z,3.13
2022-07-26T22:08:29.721Z,3.15
2022-07-26T22:10:56.880Z,3.17
2022-07-26T22:13:24.316Z,3.20
2022-07-26T22:15:51.513Z,3.60
2022-07-26T22:18:22.137Z,3.67
2022-07-26T22:20:49.926Z,3.38
2022-07-26T22:23:17.775Z,3.60
2022-07-26T22:25:45.342Z,3.60
2022-07-26T22:28:18.498Z,3.05
2022-07-26T22:30:46.637Z,3.50
2022-07-26T22:33:13.890Z,3.30
2022-07-26T22:35:41.144Z,3.42
2022-07-26T22:38:09.488Z,3.55
2022-07-26T22:40:36.909Z,3.38
2022-07-26T22:43:04.391Z,3.85
2022-07-26T22:45:31.658Z,3.25
2022-07-26T22:47:58.989Z,3.10
2022-07-26T22:50:26.389Z,3.33
2022-07-26T22:52:53.605Z,3.10
2022-07-26T22:55:21.137Z,3.00
2022-07-26T22:57:48.448Z,2.97
2022-07-26T23:00:17.771Z,3.38
2022-07-26T23:02:45.490Z,3.40
2022-07-26T23:05:15.255Z,3.50
2022-07-26T23:07:42.466Z,3.30
2022-07-26T23:10:13.179Z,2.80
2022-07-26T23:12:40.422Z,3.30
2022-07-26T23:15:09.860Z,2.80
2022-07-26T23:17:37.556Z,3.10
2022-07-26T23:20:05.454Z,3.00
2022-07-26T23:22:32.638Z,3.35
2022-07-26T23:24:59.893Z,3.05
2022-07-26T23:27:27.093Z,2.97
2022-07-26T23:29:54.363Z,2.95
2022-07-26T23:32:21.594Z,2.97
2022-07-26T23:34:48.843Z,2.80
2022-07-26T23:37:16.105Z,3.17
2022-07-26T23:39:43.499Z,2.85
2022-07-26T23:42:10.674Z,3.20
2022-07-26T23:44:37.877Z,2.88
2022-07-26T23:47:05.154Z,2.83
2022-07-26T23:49:32.563Z,2.78
2022-07-26T23:51:59.862Z,3.13
2022-07-26T23:54:27.088Z,2.95
2022-07-26T23:56:54.267Z,2.70
2022-07-26T23:59:21.519Z,2.85
